sensor_id;sensor_type;location;lat;lon;timestamp;pressure;altitude;pressure_sealevel;temperature;humidity
24045;BME280;26257;49.442;8.422;2022-07-04T00:01:15;100604.34;;;24.98;45.61
24045;BME280;26257;49.442;8.422;2022-07-04T00:03:41;100610.78;;;25.14;44.97
24045;BME280;26257;49.442;8.422;2022-07-04T00:06:06;100608.97;;;25.14;44.77
24045;BME280;26257;49.442;8.422;2022-07-04T00:08:32;100602.25;;;25.04;45.13
24045;BME280;26257;49.442;8.422;2022-07-04T00:10:57;100608.03;;;25.15;44.60
24045;BME280;26257;49.442;8.422;2022-07-04T00:13:23;100612.28;;;25.21;44.38
24045;BME280;26257;49.442;8.422;2022-07-04T00:15:48;100611.06;;;25.27;44.48
24045;BME280;26257;49.442;8.422;2022-07-04T00:18:14;100606.44;;;25.49;44.19
24045;BME280;26257;49.442;8.422;2022-07-04T00:20:39;100610.50;;;25.39;44.06
24045;BME280;26257;49.442;8.422;2022-07-04T00:23:05;100610.00;;;25.12;44.84
24045;BME280;26257;49.442;8.422;2022-07-04T00:25:30;100607.78;;;25.01;45.20
24045;BME280;26257;49.442;8.422;2022-07-04T00:27:56;100606.91;;;25.20;44.84
24045;BME280;26257;49.442;8.422;2022-07-04T00:30:21;100604.81;;;25.07;44.71
24045;BME280;26257;49.442;8.422;2022-07-04T00:32:46;100590.25;;;24.71;45.64
24045;BME280;26257;49.442;8.422;2022-07-04T00:35:12;100600.31;;;24.27;46.57
24045;BME280;26257;49.442;8.422;2022-07-04T00:37:37;100597.34;;;24.53;46.26
24045;BME280;26257;49.442;8.422;2022-07-04T00:40:03;100604.84;;;24.67;45.96
24045;BME280;26257;49.442;8.422;2022-07-04T00:42:28;100601.22;;;24.68;46.12
24045;BME280;26257;49.442;8.422;2022-07-04T00:44:54;100608.81;;;24.58;46.31
24045;BME280;26257;49.442;8.422;2022-07-04T00:47:19;100620.13;;;24.68;46.47
24045;BME280;26257;49.442;8.422;2022-07-04T00:49:45;100624.44;;;24.32;47.62
24045;BME280;26257;49.442;8.422;2022-07-04T00:52:12;100629.97;;;24.09;48.16
24045;BME280;26257;49.442;8.422;2022-07-04T00:54:37;100626.13;;;24.14;47.96
24045;BME280;26257;49.442;8.422;2022-07-04T00:57:03;100626.38;;;24.08;47.86
24045;BME280;26257;49.442;8.422;2022-07-04T00:59:28;100629.94;;;24.50;47.08
24045;BME280;26257;49.442;8.422;2022-07-04T01:01:54;100634.44;;;24.50;46.48
24045;BME280;26257;49.442;8.422;2022-07-04T01:04:19;100623.69;;;24.48;46.82
24045;BME280;26257;49.442;8.422;2022-07-04T01:06:45;100634.16;;;24.16;47.16
24045;BME280;26257;49.442;8.422;2022-07-04T01:09:10;100645.38;;;24.27;47.57
24045;BME280;26257;49.442;8.422;2022-07-04T01:11:36;100640.44;;;24.16;47.70
24045;BME280;26257;49.442;8.422;2022-07-04T01:14:01;100651.34;;;23.91;48.29
24045;BME280;26257;49.442;8.422;2022-07-04T01:16:27;100647.91;;;24.10;48.05
24045;BME280;26257;49.442;8.422;2022-07-04T01:18:53;100651.41;;;24.12;47.85
24045;BME280;26257;49.442;8.422;2022-07-04T01:21:19;100656.00;;;23.88;48.20
24045;BME280;26257;49.442;8.422;2022-07-04T01:23:45;100667.13;;;23.57;48.50
24045;BME280;26257;49.442;8.422;2022-07-04T01:26:11;100663.50;;;24.02;47.84
24045;BME280;26257;49.442;8.422;2022-07-04T01:28:36;100659.88;;;24.03;47.67
24045;BME280;26257;49.442;8.422;2022-07-04T01:31:02;100664.91;;;24.12;47.23
24045;BME280;26257;49.442;8.422;2022-07-04T01:33:28;100672.47;;;23.80;47.64
24045;BME280;26257;49.442;8.422;2022-07-04T01:35:53;100670.78;;;24.00;47.48
24045;BME280;26257;49.442;8.422;2022-07-04T01:38:19;100672.81;;;23.94;47.25
24045;BME280;26257;49.442;8.422;2022-07-04T01:40:45;100671.28;;;23.66;48.11
24045;BME280;26257;49.442;8.422;2022-07-04T01:43:10;100666.41;;;24.19;47.00
24045;BME280;26257;49.442;8.422;2022-07-04T01:45:36;100670.66;;;23.59;47.98
24045;BME280;26257;49.442;8.422;2022-07-04T01:48:12;100669.25;;;23.49;48.46
24045;BME280;26257;49.442;8.422;2022-07-04T01:50:38;100673.56;;;23.76;47.73
24045;BME280;26257;49.442;8.422;2022-07-04T01:53:03;100666.81;;;23.43;47.79
24045;BME280;26257;49.442;8.422;2022-07-04T01:55:29;100675.69;;;23.22;48.27
24045;BME280;26257;49.442;8.422;2022-07-04T01:57:55;100677.91;;;23.57;48.05
24045;BME280;26257;49.442;8.422;2022-07-04T02:00:21;100675.91;;;23.62;47.45
24045;BME280;26257;49.442;8.422;2022-07-04T02:03:05;100676.16;;;23.33;47.65
24045;BME280;26257;49.442;8.422;2022-07-04T02:05:30;100667.59;;;23.22;48.23
24045;BME280;26257;49.442;8.422;2022-07-04T02:07:56;100671.94;;;23.72;47.43
24045;BME280;26257;49.442;8.422;2022-07-04T02:10:21;100672.81;;;23.26;48.08
24045;BME280;26257;49.442;8.422;2022-07-04T02:12:47;100675.91;;;23.16;48.32
24045;BME280;26257;49.442;8.422;2022-07-04T02:15:35;100687.50;;;22.95;48.78
24045;BME280;26257;49.442;8.422;2022-07-04T02:18:06;100676.25;;;22.84;49.14
24045;BME280;26257;49.442;8.422;2022-07-04T02:20:33;100676.22;;;23.31;48.28
24045;BME280;26257;49.442;8.422;2022-07-04T02:23:00;100678.00;;;23.08;48.52
24045;BME280;26257;49.442;8.422;2022-07-04T02:25:26;100676.81;;;23.16;48.29
24045;BME280;26257;49.442;8.422;2022-07-04T02:27:51;100684.16;;;22.88;48.96
24045;BME280;26257;49.442;8.422;2022-07-04T02:30:17;100685.00;;;22.65;49.56
24045;BME280;26257;49.442;8.422;2022-07-04T02:32:42;100683.56;;;22.80;49.19
24045;BME280;26257;49.442;8.422;2022-07-04T02:35:09;100680.19;;;22.23;50.40
24045;BME280;26257;49.442;8.422;2022-07-04T02:37:34;100679.66;;;22.64;49.49
24045;BME280;26257;49.442;8.422;2022-07-04T02:40:00;100684.78;;;22.19;50.88
24045;BME280;26257;49.442;8.422;2022-07-04T02:42:30;100689.50;;;22.39;50.43
24045;BME280;26257;49.442;8.422;2022-07-04T02:44:56;100691.03;;;22.72;49.54
24045;BME280;26257;49.442;8.422;2022-07-04T02:47:21;100697.91;;;22.54;50.29
24045;BME280;26257;49.442;8.422;2022-07-04T02:49:47;100703.50;;;22.22;51.34
24045;BME280;26257;49.442;8.422;2022-07-04T02:52:12;100703.22;;;22.57;50.12
24045;BME280;26257;49.442;8.422;2022-07-04T02:54:38;100696.75;;;22.88;49.34
24045;BME280;26257;49.442;8.422;2022-07-04T02:57:04;100699.81;;;22.51;50.15
24045;BME280;26257;49.442;8.422;2022-07-04T02:59:29;100706.00;;;22.54;50.07
24045;BME280;26257;49.442;8.422;2022-07-04T03:01:55;100718.25;;;22.64;49.78
24045;BME280;26257;49.442;8.422;2022-07-04T03:04:20;100716.97;;;22.48;50.41
24045;BME280;26257;49.442;8.422;2022-07-04T03:06:45;100712.66;;;22.17;51.16
24045;BME280;26257;49.442;8.422;2022-07-04T03:09:11;100718.03;;;22.44;50.17
24045;BME280;26257;49.442;8.422;2022-07-04T03:11:36;100717.78;;;22.50;50.41
24045;BME280;26257;49.442;8.422;2022-07-04T03:14:02;100723.75;;;22.07;51.39
24045;BME280;26257;49.442;8.422;2022-07-04T03:16:27;100728.56;;;22.24;50.86
24045;BME280;26257;49.442;8.422;2022-07-04T03:18:53;100729.75;;;21.88;51.73
24045;BME280;26257;49.442;8.422;2022-07-04T03:21:18;100728.66;;;21.95;52.09
24045;BME280;26257;49.442;8.422;2022-07-04T03:23:44;100727.53;;;21.73;52.41
24045;BME280;26257;49.442;8.422;2022-07-04T03:26:26;100739.28;;;21.98;51.83
24045;BME280;26257;49.442;8.422;2022-07-04T03:28:52;100736.09;;;21.85;52.56
24045;BME280;26257;49.442;8.422;2022-07-04T03:31:17;100730.59;;;21.31;53.46
24045;BME280;26257;49.442;8.422;2022-07-04T03:33:42;100735.31;;;21.82;52.33
24045;BME280;26257;49.442;8.422;2022-07-04T03:36:08;100732.56;;;21.54;53.29
24045;BME280;26257;49.442;8.422;2022-07-04T03:38:33;100738.94;;;21.51;53.08
24045;BME280;26257;49.442;8.422;2022-07-04T03:40:59;100740.28;;;21.37;53.98
24045;BME280;26257;49.442;8.422;2022-07-04T03:43:24;100740.56;;;21.57;53.37
24045;BME280;26257;49.442;8.422;2022-07-04T03:45:49;100739.75;;;21.83;52.85
24045;BME280;26257;49.442;8.422;2022-07-04T03:48:15;100737.63;;;22.22;51.71
24045;BME280;26257;49.442;8.422;2022-07-04T03:50:40;100741.78;;;21.75;52.51
24045;BME280;26257;49.442;8.422;2022-07-04T03:53:06;100746.84;;;21.87;52.32
24045;BME280;26257;49.442;8.422;2022-07-04T03:55:31;100758.09;;;21.99;52.42
24045;BME280;26257;49.442;8.422;2022-07-04T03:57:57;100750.41;;;21.58;52.77
24045;BME280;26257;49.442;8.422;2022-07-04T04:00:22;100751.47;;;21.52;53.56
24045;BME280;26257;49.442;8.422;2022-07-04T04:02:47;100749.59;;;21.54;53.79
24045;BME280;26257;49.442;8.422;2022-07-04T04:05:13;100752.22;;;21.87;53.24
24045;BME280;26257;49.442;8.422;2022-07-04T04:08:00;100741.06;;;21.70;53.10
24045;BME280;26257;49.442;8.422;2022-07-04T04:10:28;100741.75;;;22.05;52.40
24045;BME280;26257;49.442;8.422;2022-07-04T04:12:54;100751.03;;;21.95;52.81
24045;BME280;26257;49.442;8.422;2022-07-04T04:15:20;100753.84;;;21.62;53.78
24045;BME280;26257;49.442;8.422;2022-07-04T04:17:46;100741.91;;;21.72;53.19
24045;BME280;26257;49.442;8.422;2022-07-04T04:20:12;100750.00;;;21.70;53.53
24045;BME280;26257;49.442;8.422;2022-07-04T04:22:37;100745.03;;;21.57;54.00
24045;BME280;26257;49.442;8.422;2022-07-04T04:25:03;100749.03;;;22.02;52.62
24045;BME280;26257;49.442;8.422;2022-07-04T04:27:29;100760.53;;;21.48;54.01
24045;BME280;26257;49.442;8.422;2022-07-04T04:29:54;100759.06;;;21.68;53.46
24045;BME280;26257;49.442;8.422;2022-07-04T04:32:20;100769.16;;;21.60;53.78
24045;BME280;26257;49.442;8.422;2022-07-04T04:34:45;100764.19;;;21.75;53.75
24045;BME280;26257;49.442;8.422;2022-07-04T04:37:10;100769.13;;;21.30;54.66
24045;BME280;26257;49.442;8.422;2022-07-04T04:39:37;100772.16;;;21.18;55.04
24045;BME280;26257;49.442;8.422;2022-07-04T04:42:04;100773.22;;;21.43;54.15
24045;BME280;26257;49.442;8.422;2022-07-04T04:44:29;100782.69;;;21.57;54.29
24045;BME280;26257;49.442;8.422;2022-07-04T04:46:55;100776.34;;;21.90;53.08
24045;BME280;26257;49.442;8.422;2022-07-04T04:49:20;100781.06;;;21.80;53.32
24045;BME280;26257;49.442;8.422;2022-07-04T04:51:45;100786.78;;;21.70;53.89
24045;BME280;26257;49.442;8.422;2022-07-04T04:54:11;100789.44;;;21.40;54.78
24045;BME280;26257;49.442;8.422;2022-07-04T04:56:36;100788.50;;;21.43;54.71
24045;BME280;26257;49.442;8.422;2022-07-04T04:59:02;100790.63;;;22.20;52.94
24045;BME280;26257;49.442;8.422;2022-07-04T05:01:27;100791.91;;;22.08;52.83
24045;BME280;26257;49.442;8.422;2022-07-04T05:03:53;100803.56;;;22.35;52.50
24045;BME280;26257;49.442;8.422;2022-07-04T05:06:18;100799.59;;;22.20;52.69
24045;BME280;26257;49.442;8.422;2022-07-04T05:08:44;100802.97;;;21.68;54.07
24045;BME280;26257;49.442;8.422;2022-07-04T05:11:10;100796.34;;;22.64;51.96
24045;BME280;26257;49.442;8.422;2022-07-04T05:13:36;100801.28;;;22.23;52.63
24045;BME280;26257;49.442;8.422;2022-07-04T05:16:01;100798.56;;;22.78;51.68
24045;BME280;26257;49.442;8.422;2022-07-04T05:18:27;100794.84;;;23.07;50.73
24045;BME280;26257;49.442;8.422;2022-07-04T05:20:52;100793.09;;;22.53;52.04
24045;BME280;26257;49.442;8.422;2022-07-04T05:23:18;100793.66;;;22.89;51.40
24045;BME280;26257;49.442;8.422;2022-07-04T05:25:43;100800.63;;;22.42;52.10
24045;BME280;26257;49.442;8.422;2022-07-04T05:28:09;100803.88;;;22.80;51.37
24045;BME280;26257;49.442;8.422;2022-07-04T05:30:34;100800.16;;;22.57;52.43
24045;BME280;26257;49.442;8.422;2022-07-04T05:32:59;100800.03;;;22.87;51.61
24045;BME280;26257;49.442;8.422;2022-07-04T05:35:27;100803.31;;;23.21;50.25
24045;BME280;26257;49.442;8.422;2022-07-04T05:37:53;100800.16;;;23.58;49.87
24045;BME280;26257;49.442;8.422;2022-07-04T05:40:19;100806.38;;;23.60;49.60
24045;BME280;26257;49.442;8.422;2022-07-04T05:42:46;100813.38;;;23.65;49.30
24045;BME280;26257;49.442;8.422;2022-07-04T05:45:12;100807.25;;;23.37;50.04
24045;BME280;26257;49.442;8.422;2022-07-04T05:47:37;100811.03;;;23.56;50.15
24045;BME280;26257;49.442;8.422;2022-07-04T05:50:03;100814.25;;;23.89;48.39
24045;BME280;26257;49.442;8.422;2022-07-04T05:52:28;100814.75;;;23.75;48.52
24045;BME280;26257;49.442;8.422;2022-07-04T05:54:54;100818.25;;;23.79;48.84
24045;BME280;26257;49.442;8.422;2022-07-04T05:57:19;100817.84;;;23.66;48.62
24045;BME280;26257;49.442;8.422;2022-07-04T05:59:44;100823.63;;;23.79;48.33
24045;BME280;26257;49.442;8.422;2022-07-04T06:02:10;100820.41;;;23.92;48.57
24045;BME280;26257;49.442;8.422;2022-07-04T06:04:36;100825.91;;;24.14;48.26
24045;BME280;26257;49.442;8.422;2022-07-04T06:07:01;100827.81;;;23.87;48.37
24045;BME280;26257;49.442;8.422;2022-07-04T06:09:27;100819.81;;;24.08;48.06
24045;BME280;26257;49.442;8.422;2022-07-04T06:11:52;100823.94;;;24.18;47.69
24045;BME280;26257;49.442;8.422;2022-07-04T06:14:18;100820.25;;;24.42;47.68
24045;BME280;26257;49.442;8.422;2022-07-04T06:16:43;100827.22;;;24.03;48.23
24045;BME280;26257;49.442;8.422;2022-07-04T06:19:08;100817.88;;;24.34;47.44
24045;BME280;26257;49.442;8.422;2022-07-04T06:21:34;100823.50;;;24.28;47.47
24045;BME280;26257;49.442;8.422;2022-07-04T06:23:59;100821.13;;;23.98;48.38
24045;BME280;26257;49.442;8.422;2022-07-04T06:26:26;100824.41;;;24.06;48.48
24045;BME280;26257;49.442;8.422;2022-07-04T06:28:52;100819.47;;;23.93;48.55
24045;BME280;26257;49.442;8.422;2022-07-04T06:31:17;100819.59;;;24.35;47.94
24045;BME280;26257;49.442;8.422;2022-07-04T06:33:43;100809.00;;;24.52;47.77
24045;BME280;26257;49.442;8.422;2022-07-04T06:36:27;100806.88;;;24.61;47.33
24045;BME280;26257;49.442;8.422;2022-07-04T06:38:53;100805.41;;;24.74;47.49
24045;BME280;26257;49.442;8.422;2022-07-04T06:41:18;100806.03;;;24.58;47.81
24045;BME280;26257;49.442;8.422;2022-07-04T06:43:44;100803.13;;;24.85;47.95
24045;BME280;26257;49.442;8.422;2022-07-04T06:46:09;100810.50;;;24.60;47.01
24045;BME280;26257;49.442;8.422;2022-07-04T06:48:35;100800.50;;;25.03;45.65
24045;BME280;26257;49.442;8.422;2022-07-04T06:51:01;100801.13;;;24.68;46.55
24045;BME280;26257;49.442;8.422;2022-07-04T06:53:26;100801.69;;;24.76;45.88
24045;BME280;26257;49.442;8.422;2022-07-04T06:55:52;100797.81;;;24.83;45.60
24045;BME280;26257;49.442;8.422;2022-07-04T06:58:17;100807.00;;;24.79;45.95
24045;BME280;26257;49.442;8.422;2022-07-04T07:00:43;100803.28;;;24.82;45.87
24045;BME280;26257;49.442;8.422;2022-07-04T07:03:09;100806.88;;;25.02;45.49
24045;BME280;26257;49.442;8.422;2022-07-04T07:05:35;100800.09;;;25.33;45.19
24045;BME280;26257;49.442;8.422;2022-07-04T07:08:03;100804.88;;;25.07;45.54
24045;BME280;26257;49.442;8.422;2022-07-04T07:10:29;100800.50;;;25.03;45.31
24045;BME280;26257;49.442;8.422;2022-07-04T07:12:57;100790.44;;;25.27;44.58
24045;BME280;26257;49.442;8.422;2022-07-04T07:15:23;100788.72;;;25.45;44.21
24045;BME280;26257;49.442;8.422;2022-07-04T07:17:48;100799.13;;;25.74;43.80
24045;BME280;26257;49.442;8.422;2022-07-04T07:20:14;100792.97;;;25.52;44.42
24045;BME280;26257;49.442;8.422;2022-07-04T07:22:40;100782.22;;;25.69;43.66
24045;BME280;26257;49.442;8.422;2022-07-04T07:25:07;100781.91;;;25.56;43.47
24045;BME280;26257;49.442;8.422;2022-07-04T07:27:33;100770.97;;;25.78;43.05
24045;BME280;26257;49.442;8.422;2022-07-04T07:29:58;100778.13;;;25.79;43.57
24045;BME280;26257;49.442;8.422;2022-07-04T07:32:23;100783.84;;;25.73;42.48
24045;BME280;26257;49.442;8.422;2022-07-04T07:34:49;100774.75;;;25.74;42.94
24045;BME280;26257;49.442;8.422;2022-07-04T07:37:14;100776.38;;;25.78;42.91
24045;BME280;26257;49.442;8.422;2022-07-04T07:39:43;100774.06;;;25.70;43.13
24045;BME280;26257;49.442;8.422;2022-07-04T07:42:08;100772.50;;;26.21;42.16
24045;BME280;26257;49.442;8.422;2022-07-04T07:44:33;100764.06;;;26.08;43.08
24045;BME280;26257;49.442;8.422;2022-07-04T07:46:59;100769.91;;;26.36;41.93
24045;BME280;26257;49.442;8.422;2022-07-04T07:49:24;100766.94;;;26.05;42.14
24045;BME280;26257;49.442;8.422;2022-07-04T07:51:50;100772.56;;;26.01;42.15
24045;BME280;26257;49.442;8.422;2022-07-04T07:54:15;100768.91;;;26.20;41.52
24045;BME280;26257;49.442;8.422;2022-07-04T07:56:42;100772.84;;;26.32;41.49
24045;BME280;26257;49.442;8.422;2022-07-04T07:59:07;100763.41;;;26.41;41.11
24045;BME280;26257;49.442;8.422;2022-07-04T08:01:33;100766.13;;;26.41;41.38
24045;BME280;26257;49.442;8.422;2022-07-04T08:03:58;100760.81;;;26.56;40.16
24045;BME280;26257;49.442;8.422;2022-07-04T08:06:42;100763.41;;;26.58;40.81
24045;BME280;26257;49.442;8.422;2022-07-04T08:09:08;100751.44;;;26.45;40.65
24045;BME280;26257;49.442;8.422;2022-07-04T08:11:34;100758.19;;;26.72;40.97
24045;BME280;26257;49.442;8.422;2022-07-04T08:13:59;100758.94;;;26.57;40.26
24045;BME280;26257;49.442;8.422;2022-07-04T08:16:25;100754.53;;;26.37;40.36
24045;BME280;26257;49.442;8.422;2022-07-04T08:18:50;100753.81;;;26.33;40.36
24045;BME280;26257;49.442;8.422;2022-07-04T08:21:16;100748.84;;;26.06;41.07
24045;BME280;26257;49.442;8.422;2022-07-04T08:23:41;100740.94;;;26.56;40.27
24045;BME280;26257;49.442;8.422;2022-07-04T08:26:07;100748.91;;;26.76;39.76
24045;BME280;26257;49.442;8.422;2022-07-04T08:40:17;100742.50;;;27.45;39.21
24045;BME280;26257;49.442;8.422;2022-07-04T08:42:43;100747.44;;;27.54;38.73
24045;BME280;26257;49.442;8.422;2022-07-04T08:45:09;100741.84;;;27.58;38.67
24045;BME280;26257;49.442;8.422;2022-07-04T08:47:37;100739.34;;;27.20;38.60
24045;BME280;26257;49.442;8.422;2022-07-04T08:50:16;100746.03;;;27.30;38.97
24045;BME280;26257;49.442;8.422;2022-07-04T08:53:13;100745.41;;;27.25;38.75
24045;BME280;26257;49.442;8.422;2022-07-04T08:55:41;100741.88;;;27.40;38.48
24045;BME280;26257;49.442;8.422;2022-07-04T08:58:25;100737.66;;;27.68;38.22
24045;BME280;26257;49.442;8.422;2022-07-04T09:00:55;100741.28;;;27.84;38.40
24045;BME280;26257;49.442;8.422;2022-07-04T09:03:21;100739.66;;;27.31;38.79
24045;BME280;26257;49.442;8.422;2022-07-04T09:05:48;100745.91;;;27.16;38.62
24045;BME280;26257;49.442;8.422;2022-07-04T09:08:13;100745.72;;;27.85;38.25
24045;BME280;26257;49.442;8.422;2022-07-04T09:10:39;100734.53;;;27.91;37.81
24045;BME280;26257;49.442;8.422;2022-07-04T09:13:06;100735.97;;;27.32;38.80
24045;BME280;26257;49.442;8.422;2022-07-04T09:15:32;100746.84;;;26.64;39.00
24045;BME280;26257;49.442;8.422;2022-07-04T09:17:59;100735.22;;;27.13;38.53
24045;BME280;26257;49.442;8.422;2022-07-04T09:20:26;100736.66;;;26.86;38.59
24045;BME280;26257;49.442;8.422;2022-07-04T09:22:53;100741.44;;;26.64;38.92
24045;BME280;26257;49.442;8.422;2022-07-04T09:25:20;100734.56;;;26.74;38.74
24045;BME280;26257;49.442;8.422;2022-07-04T09:27:48;100733.16;;;26.67;38.30
24045;BME280;26257;49.442;8.422;2022-07-04T09:30:15;100724.69;;;27.24;37.88
24045;BME280;26257;49.442;8.422;2022-07-04T09:32:46;100726.09;;;27.14;37.83
24045;BME280;26257;49.442;8.422;2022-07-04T09:35:16;100723.66;;;26.75;38.66
24045;BME280;26257;49.442;8.422;2022-07-04T09:37:43;100723.63;;;27.60;37.68
24045;BME280;26257;49.442;8.422;2022-07-04T09:40:23;100730.09;;;27.41;37.68
24045;BME280;26257;49.442;8.422;2022-07-04T09:42:49;100723.91;;;27.71;36.61
24045;BME280;26257;49.442;8.422;2022-07-04T09:45:15;100721.19;;;27.55;36.73
24045;BME280;26257;49.442;8.422;2022-07-04T09:47:41;100716.28;;;27.93;37.26
24045;BME280;26257;49.442;8.422;2022-07-04T09:55:23;100718.59;;;28.16;36.58
24045;BME280;26257;49.442;8.422;2022-07-04T10:16:43;100717.34;;;27.75;35.01
24045;BME280;26257;49.442;8.422;2022-07-04T10:19:09;100710.31;;;28.49;34.69
24045;BME280;26257;49.442;8.422;2022-07-04T10:21:35;100712.72;;;28.69;33.73
24045;BME280;26257;49.442;8.422;2022-07-04T10:24:01;100723.50;;;28.25;32.66
24045;BME280;26257;49.442;8.422;2022-07-04T10:26:28;100724.44;;;27.77;32.78
24045;BME280;26257;49.442;8.422;2022-07-04T10:28:55;100707.75;;;28.46;31.90
24045;BME280;26257;49.442;8.422;2022-07-04T10:31:23;100707.66;;;29.07;31.77
24045;BME280;26257;49.442;8.422;2022-07-04T10:33:51;100703.03;;;29.79;30.81
24045;BME280;26257;49.442;8.422;2022-07-04T10:36:22;100709.44;;;30.46;29.61
24045;BME280;26257;49.442;8.422;2022-07-04T10:38:56;100706.97;;;31.58;29.00
24045;BME280;26257;49.442;8.422;2022-07-04T10:41:24;100698.75;;;32.19;28.42
24045;BME280;26257;49.442;8.422;2022-07-04T10:43:53;100698.38;;;32.48;28.28
24045;BME280;26257;49.442;8.422;2022-07-04T10:51:45;100698.75;;;35.08;25.13
24045;BME280;26257;49.442;8.422;2022-07-04T10:54:15;100703.53;;;35.97;23.71
24045;BME280;26257;49.442;8.422;2022-07-04T10:56:48;100708.00;;;34.11;25.85
24045;BME280;26257;49.442;8.422;2022-07-04T10:59:27;100698.25;;;34.61;25.00
24045;BME280;26257;49.442;8.422;2022-07-04T11:07:16;100700.94;;;35.55;22.14
24045;BME280;26257;49.442;8.422;2022-07-04T11:09:43;100696.47;;;36.04;21.66
24045;BME280;26257;49.442;8.422;2022-07-04T11:12:10;100697.44;;;34.91;23.25
24045;BME280;26257;49.442;8.422;2022-07-04T11:14:46;100696.97;;;36.47;21.68
24045;BME280;26257;49.442;8.422;2022-07-04T11:17:14;100700.19;;;36.52;21.13
24045;BME280;26257;49.442;8.422;2022-07-04T11:19:41;100700.47;;;36.59;21.42
24045;BME280;26257;49.442;8.422;2022-07-04T11:22:08;100693.00;;;37.36;21.13
24045;BME280;26257;49.442;8.422;2022-07-04T11:24:36;100694.31;;;38.05;20.70
24045;BME280;26257;49.442;8.422;2022-07-04T11:27:02;100687.25;;;38.73;19.18
24045;BME280;26257;49.442;8.422;2022-07-04T11:29:29;100684.50;;;37.93;19.93
24045;BME280;26257;49.442;8.422;2022-07-04T11:31:55;100676.78;;;37.69;20.23
24045;BME280;26257;49.442;8.422;2022-07-04T11:34:21;100687.25;;;35.74;21.32
24045;BME280;26257;49.442;8.422;2022-07-04T11:36:49;100680.31;;;36.77;20.79
24045;BME280;26257;49.442;8.422;2022-07-04T11:39:16;100672.38;;;37.40;19.94
24045;BME280;26257;49.442;8.422;2022-07-04T11:41:52;100678.50;;;37.70;20.01
24045;BME280;26257;49.442;8.422;2022-07-04T11:44:40;100669.06;;;37.27;19.88
24045;BME280;26257;49.442;8.422;2022-07-04T11:47:25;100667.94;;;37.20;20.89
24045;BME280;26257;49.442;8.422;2022-07-04T11:49:55;100669.59;;;38.49;19.91
24045;BME280;26257;49.442;8.422;2022-07-04T11:54:49;100660.19;;;39.46;18.69
24045;BME280;26257;49.442;8.422;2022-07-04T11:57:22;100658.06;;;38.36;19.04
24045;BME280;26257;49.442;8.422;2022-07-04T11:59:56;100664.53;;;39.23;18.78
24045;BME280;26257;49.442;8.422;2022-07-04T12:02:22;100666.88;;;39.69;17.76
24045;BME280;26257;49.442;8.422;2022-07-04T12:04:48;100662.13;;;39.02;18.99
24045;BME280;26257;49.442;8.422;2022-07-04T12:07:15;100665.66;;;39.64;17.87
24045;BME280;26257;49.442;8.422;2022-07-04T12:09:42;100660.44;;;38.66;19.04
24045;BME280;26257;49.442;8.422;2022-07-04T12:12:08;100659.00;;;38.62;19.29
24045;BME280;26257;49.442;8.422;2022-07-04T12:14:34;100653.66;;;39.04;18.47
24045;BME280;26257;49.442;8.422;2022-07-04T12:19:35;100659.88;;;39.23;17.88
24045;BME280;26257;49.442;8.422;2022-07-04T12:22:00;100649.25;;;38.14;18.82
24045;BME280;26257;49.442;8.422;2022-07-04T12:24:26;100638.25;;;40.68;18.03
24045;BME280;26257;49.442;8.422;2022-07-04T12:26:52;100640.44;;;39.67;18.43
24045;BME280;26257;49.442;8.422;2022-07-04T12:29:24;100641.34;;;38.19;19.26
24045;BME280;26257;49.442;8.422;2022-07-04T12:31:51;100634.41;;;38.15;19.06
24045;BME280;26257;49.442;8.422;2022-07-04T12:34:19;100622.59;;;40.11;17.99
24045;BME280;26257;49.442;8.422;2022-07-04T12:36:55;100632.91;;;38.39;18.88
24045;BME280;26257;49.442;8.422;2022-07-04T12:39:47;100632.56;;;38.95;18.57
24045;BME280;26257;49.442;8.422;2022-07-04T12:42:18;100614.91;;;39.81;17.60
24045;BME280;26257;49.442;8.422;2022-07-04T12:44:47;100627.59;;;39.24;18.11
24045;BME280;26257;49.442;8.422;2022-07-04T12:47:17;100616.03;;;37.79;19.58
24045;BME280;26257;49.442;8.422;2022-07-04T12:49:44;100620.34;;;38.62;18.62
24045;BME280;26257;49.442;8.422;2022-07-04T12:52:15;100613.47;;;37.68;19.24
24045;BME280;26257;49.442;8.422;2022-07-04T12:54:42;100612.66;;;38.48;18.91
24045;BME280;26257;49.442;8.422;2022-07-04T12:57:13;100609.72;;;37.69;19.44
24045;BME280;26257;49.442;8.422;2022-07-04T12:59:40;100600.16;;;37.36;19.68
24045;BME280;26257;49.442;8.422;2022-07-04T13:02:08;100596.00;;;38.22;19.33
24045;BME280;26257;49.442;8.422;2022-07-04T13:04:34;100592.50;;;38.99;19.14
24045;BME280;26257;49.442;8.422;2022-07-04T13:07:12;100594.97;;;38.58;18.81
24045;BME280;26257;49.442;8.422;2022-07-04T13:09:38;100583.22;;;39.33;18.51
24045;BME280;26257;49.442;8.422;2022-07-04T13:12:04;100586.28;;;38.97;18.32
24045;BME280;26257;49.442;8.422;2022-07-04T13:14:48;100584.00;;;36.39;20.79
24045;BME280;26257;49.442;8.422;2022-07-04T13:17:13;100581.38;;;37.22;20.12
24045;BME280;26257;49.442;8.422;2022-07-04T13:19:38;100575.13;;;38.80;18.94
24045;BME280;26257;49.442;8.422;2022-07-04T13:22:04;100574.78;;;37.60;19.52
24045;BME280;26257;49.442;8.422;2022-07-04T13:24:29;100574.00;;;38.48;18.99
24045;BME280;26257;49.442;8.422;2022-07-04T13:26:55;100573.03;;;39.34;17.62
24045;BME280;26257;49.442;8.422;2022-07-04T13:29:20;100565.09;;;39.81;17.24
24045;BME280;26257;49.442;8.422;2022-07-04T13:31:48;100559.97;;;40.18;17.49
24045;BME280;26257;49.442;8.422;2022-07-04T13:34:13;100564.06;;;39.90;17.54
24045;BME280;26257;49.442;8.422;2022-07-04T13:36:39;100562.44;;;40.61;16.58
24045;BME280;26257;49.442;8.422;2022-07-04T13:39:04;100565.59;;;39.26;17.57
24045;BME280;26257;49.442;8.422;2022-07-04T13:41:33;100551.00;;;40.24;17.19